createdAt,value
2022-09-14T00:01:25.383Z,10.00
2022-09-14T00:06:30.979Z,11.00
2022-09-14T00:11:36.474Z,11.30
2022-09-14T00:16:42.489Z,8.90
2022-09-14T00:21:45.950Z,10.30
2022-09-14T00:26:49.749Z,8.40
2022-09-14T00:31:53.157Z,9.50
2022-09-14T00:36:56.407Z,9.50
2022-09-14T00:41:59.910Z,9.80
2022-09-14T00:47:03.630Z,9.50
2022-09-14T00:52:19.233Z,8.20
2022-09-14T00:57:24.798Z,9.00
2022-09-14T01:02:29.681Z,9.20
2022-09-14T01:08:16.412Z,9.60
2022-09-14T01:13:42.561Z,6.90
2022-09-14T01:18:53.012Z,10.40
2022-09-14T01:24:38.149Z,10.30
2022-09-14T01:30:07.485Z,9.80
2022-09-14T01:35:34.168Z,9.00
2022-09-14T01:40:49.686Z,9.40
2022-09-14T01:46:08.303Z,9.70
2022-09-14T01:51:19.633Z,9.70
2022-09-14T01:56:39.228Z,11.00
2022-09-14T02:01:53.108Z,9.70
2022-09-14T02:06:57.210Z,11.20
2022-09-14T02:12:01.136Z,9.80
2022-09-14T02:17:04.781Z,10.60
2022-09-14T02:22:08.165Z,9.40
2022-09-14T02:27:11.294Z,8.20
2022-09-14T02:32:35.252Z,9.80
2022-09-14T02:38:06.947Z,9.40
2022-09-14T02:43:34.839Z,9.80
2022-09-14T02:48:40.906Z,8.90
2022-09-14T02:54:09.309Z,8.30
2022-09-14T03:04:15.849Z,7.70
2022-09-14T03:09:19.242Z,7.70
2022-09-14T03:14:22.347Z,8.10
2022-09-14T03:19:25.453Z,8.10
2022-09-14T03:24:28.557Z,8.00
2022-09-14T03:29:31.696Z,9.50
2022-09-14T03:34:34.874Z,8.30
2022-09-14T03:39:37.978Z,8.60
2022-09-14T03:44:41.085Z,10.00
2022-09-14T03:49:44.191Z,9.50
2022-09-14T03:54:47.323Z,10.80
2022-09-14T03:59:50.821Z,10.00
2022-09-14T04:04:54.026Z,9.40
2022-09-14T04:09:57.175Z,10.10
2022-09-14T04:15:00.234Z,11.70
2022-09-14T04:20:04.629Z,11.70
2022-09-14T04:25:08.606Z,10.50
2022-09-14T04:30:13.043Z,11.10
2022-09-14T04:35:16.141Z,10.30
2022-09-14T04:40:19.328Z,10.20
2022-09-14T04:45:22.555Z,11.90
2022-09-14T04:50:25.667Z,12.90
2022-09-14T04:55:28.776Z,10.80
2022-09-14T05:00:36.252Z,10.50
2022-09-14T05:05:44.317Z,12.70
2022-09-14T05:10:48.237Z,11.90
2022-09-14T05:15:52.016Z,13.00
2022-09-14T05:20:55.080Z,12.00
2022-09-14T05:25:59.186Z,11.00
2022-09-14T05:31:13.250Z,11.90
2022-09-14T05:36:17.605Z,10.80
2022-09-14T05:41:20.996Z,11.90
2022-09-14T05:46:24.245Z,10.60
2022-09-14T05:51:28.823Z,9.90
2022-09-14T05:56:32.156Z,9.20
2022-09-14T06:01:35.511Z,9.90
2022-09-14T06:06:38.881Z,10.60
2022-09-14T06:11:42.799Z,10.10
2022-09-14T06:16:46.935Z,8.70
2022-09-14T06:21:50.035Z,8.70
2022-09-14T06:26:53.243Z,8.00
2022-09-14T06:31:56.351Z,8.30
2022-09-14T06:36:59.762Z,9.80
2022-09-14T06:42:03.012Z,7.90
2022-09-14T06:47:07.106Z,7.40
2022-09-14T06:52:10.223Z,6.40
2022-09-14T06:57:13.316Z,5.50
2022-09-14T07:02:16.460Z,5.20
2022-09-14T07:07:19.832Z,4.70
2022-09-14T07:12:22.938Z,4.10
2022-09-14T07:17:25.947Z,3.80
2022-09-14T07:22:29.153Z,4.60
2022-09-14T07:27:34.270Z,3.50
2022-09-14T07:32:37.338Z,3.70
2022-09-14T07:37:40.521Z,3.10
2022-09-14T07:42:43.668Z,3.60
2022-09-14T07:47:48.685Z,2.40
2022-09-14T07:52:52.501Z,2.60
2022-09-14T07:57:56.970Z,2.60
2022-09-14T08:03:00.346Z,1.90
2022-09-14T08:08:03.677Z,1.50
2022-09-14T08:13:06.864Z,1.50
2022-09-14T08:18:09.978Z,1.90
2022-09-14T08:23:13.493Z,1.60
2022-09-14T08:28:16.601Z,1.60
2022-09-14T08:33:19.721Z,1.40
2022-09-14T08:38:23.412Z,2.00
2022-09-14T08:43:28.125Z,1.30
2022-09-14T08:48:37.703Z,1.50
2022-09-14T08:53:42.898Z,1.50
2022-09-14T08:59:25.696Z,1.20
2022-09-14T09:04:53.613Z,1.50
2022-09-14T09:09:58.576Z,1.30
2022-09-14T09:15:22.138Z,1.30
2022-09-14T09:20:51.972Z,1.40
2022-09-14T09:26:16.789Z,1.10
2022-09-14T09:31:33.448Z,1.40
2022-09-14T09:36:41.243Z,1.30
2022-09-14T09:41:51.234Z,1.30
2022-09-14T09:47:02.126Z,1.40
2022-09-14T09:52:24.400Z,0.90
2022-09-14T09:57:36.907Z,1.00
2022-09-14T10:02:41.811Z,1.00
2022-09-14T10:07:50.510Z,1.20
2022-09-14T10:12:57.041Z,0.80
2022-09-14T10:18:12.325Z,1.30
2022-09-14T10:23:18.419Z,1.30
2022-09-14T10:28:33.992Z,1.00
2022-09-14T10:33:37.112Z,0.90
2022-09-14T10:38:50.904Z,1.30
2022-09-14T10:44:24.692Z,1.00
2022-09-14T10:50:31.794Z,0.90
2022-09-14T10:56:23.971Z,1.00
2022-09-14T11:01:45.614Z,1.00
2022-09-14T11:07:12.554Z,0.80
2022-09-14T11:12:52.259Z,1.10
2022-09-14T11:18:19.799Z,1.10
2022-09-14T11:23:43.882Z,1.30
2022-09-14T11:28:59.190Z,1.00
2022-09-14T11:34:38.453Z,0.90
2022-09-14T11:40:47.025Z,0.90
2022-09-14T11:46:06.337Z,1.40
2022-09-14T11:51:23.093Z,1.10
2022-09-14T11:56:34.087Z,1.00
2022-09-14T12:01:41.594Z,1.00
2022-09-14T12:06:50.133Z,1.00
2022-09-14T12:12:00.525Z,1.00
2022-09-14T12:17:40.340Z,0.80
2022-09-14T12:22:49.924Z,1.20
2022-09-14T12:27:54.159Z,1.00
2022-09-14T12:32:57.384Z,0.70
2022-09-14T12:38:29.255Z,1.10
2022-09-14T12:43:33.689Z,1.10
2022-09-14T12:49:26.559Z,1.00
2022-09-14T12:55:27.831Z,1.10
2022-09-14T13:00:49.580Z,1.10
2022-09-14T13:05:52.677Z,1.00
2022-09-14T13:10:55.830Z,1.10
2022-09-14T13:16:07.655Z,1.10
2022-09-14T13:21:24.980Z,0.80
2022-09-14T13:26:31.847Z,0.80
2022-09-14T13:31:39.748Z,0.80
2022-09-14T13:36:44.839Z,0.90
2022-09-14T13:41:48.420Z,1.00
2022-09-14T13:46:52.347Z,1.10
2022-09-14T13:52:33.959Z,1.00
2022-09-14T13:58:16.452Z,0.90
2022-09-14T14:03:48.633Z,1.00
2022-09-14T14:09:05.777Z,1.70
2022-09-14T14:14:30.772Z,0.90
2022-09-14T14:19:34.550Z,0.80
2022-09-14T14:24:55.715Z,1.10
2022-09-14T14:30:04.446Z,1.10
2022-09-14T14:35:22.566Z,2.00
2022-09-14T14:40:28.060Z,1.10
2022-09-14T14:45:36.365Z,1.20
2022-09-14T14:50:40.301Z,1.10
2022-09-14T14:55:43.493Z,1.60
2022-09-14T15:00:48.139Z,1.40
2022-09-14T15:05:51.549Z,1.80
2022-09-14T15:10:58.288Z,4.80
2022-09-14T15:16:01.407Z,1.30
2022-09-14T15:21:05.491Z,1.50
2022-09-14T15:26:08.685Z,1.50
2022-09-14T15:31:13.513Z,1.50
2022-09-14T15:36:51.763Z,1.20
2022-09-14T15:41:56.811Z,1.90
2022-09-14T15:47:00.140Z,3.40
2022-09-14T15:52:04.155Z,2.70
2022-09-14T15:57:11.904Z,1.60
2022-09-14T16:02:17.115Z,2.20
2022-09-14T16:07:20.666Z,1.90
2022-09-14T16:12:23.856Z,2.20
2022-09-14T16:17:27.153Z,2.60
2022-09-14T16:22:30.603Z,2.00
2022-09-14T16:27:34.085Z,2.10
2022-09-14T16:32:37.393Z,2.20
2022-09-14T16:37:40.499Z,2.30
2022-09-14T16:42:44.017Z,2.40
2022-09-14T16:47:47.046Z,2.20
2022-09-14T16:52:50.126Z,4.30
2022-09-14T16:57:53.234Z,4.10
2022-09-14T17:02:56.337Z,4.10
2022-09-14T17:07:59.441Z,4.20
2022-09-14T17:13:02.565Z,3.60
2022-09-14T17:18:05.756Z,3.30
2022-09-14T17:23:08.759Z,2.90
2022-09-14T17:28:11.868Z,3.50
2022-09-14T17:33:14.974Z,3.60
2022-09-14T17:38:19.484Z,4.10
2022-09-14T17:43:22.619Z,7.30
2022-09-14T17:48:27.973Z,6.90
2022-09-14T17:53:31.185Z,8.90
2022-09-14T17:58:36.079Z,8.60
2022-09-14T18:03:41.964Z,8.80
2022-09-14T18:08:46.671Z,6.80
2022-09-14T18:13:51.175Z,6.50
2022-09-14T18:18:55.011Z,4.20
2022-09-14T18:23:58.540Z,4.30
2022-09-14T18:29:03.889Z,5.60
2022-09-14T18:34:08.522Z,5.60
2022-09-14T18:39:13.392Z,4.60
2022-09-14T18:44:16.603Z,9.40
2022-09-14T18:49:19.909Z,5.40
2022-09-14T18:54:27.457Z,5.60
2022-09-14T18:59:31.330Z,7.70
2022-09-14T19:04:34.854Z,6.40
2022-09-14T19:09:38.054Z,5.30
2022-09-14T19:14:41.260Z,5.40
2022-09-14T19:19:44.470Z,5.70
2022-09-14T19:24:47.581Z,10.80
2022-09-14T19:29:52.641Z,6.20
2022-09-14T19:34:55.936Z,6.20
2022-09-14T19:39:59.206Z,6.40
2022-09-14T19:45:03.985Z,6.40
2022-09-14T19:50:09.326Z,5.80
2022-09-14T19:55:12.505Z,12.10
2022-09-14T20:00:18.175Z,7.30
2022-09-14T20:05:21.947Z,6.30
2022-09-14T20:10:26.795Z,8.00
2022-09-14T20:15:30.566Z,8.60
2022-09-14T20:20:37.789Z,9.20
2022-09-14T20:25:40.860Z,11.70
2022-09-14T20:30:44.126Z,12.40
2022-09-14T20:35:49.204Z,10.50
2022-09-14T20:41:06.816Z,10.90
2022-09-14T20:46:15.134Z,10.60
2022-09-14T20:51:20.891Z,10.70
2022-09-14T20:56:31.160Z,11.30
2022-09-14T21:01:37.364Z,10.60
2022-09-14T21:06:52.779Z,11.10
2022-09-14T21:11:56.187Z,11.30
2022-09-14T21:16:59.606Z,11.90
2022-09-14T21:22:03.012Z,11.80
2022-09-14T21:27:07.835Z,13.90
2022-09-14T21:32:11.071Z,12.10
2022-09-14T21:37:14.484Z,15.40
2022-09-14T21:42:17.477Z,19.30
2022-09-14T21:47:20.795Z,12.50
2022-09-14T21:52:23.927Z,10.10
2022-09-14T21:57:26.979Z,10.20
2022-09-14T22:02:30.200Z,9.70
2022-09-14T22:07:33.450Z,10.40
2022-09-14T22:12:36.531Z,10.50
2022-09-14T22:17:39.562Z,12.60
2022-09-14T22:22:44.663Z,11.40
2022-09-14T22:27:47.600Z,9.90
2022-09-14T22:32:50.625Z,10.70
2022-09-14T22:37:53.629Z,8.20
2022-09-14T22:42:56.611Z,8.50
2022-09-14T22:47:59.570Z,9.70
2022-09-14T22:53:02.551Z,15.40
2022-09-14T22:58:06.737Z,19.80
2022-09-14T23:03:11.512Z,21.70
2022-09-14T23:08:14.557Z,18.80
2022-09-14T23:13:17.602Z,18.70
2022-09-14T23:18:20.591Z,19.00
2022-09-14T23:23:23.555Z,18.00
2022-09-14T23:28:26.521Z,16.40
2022-09-14T23:33:31.094Z,15.60
2022-09-14T23:38:35.546Z,18.40
2022-09-14T23:43:38.686Z,17.30
2022-09-14T23:48:41.839Z,16.00
2022-09-14T23:53:45.207Z,16.10
2022-09-14T23:58:48.613Z,15.30
